Time;durP1;ratioP1;P1;durP2;ratioP2;P2;SDS_P1;SDS_P2;PMS_P1;PMS_P2;Temp;Humidity;BMP_temperature;BMP_pressure;BME280_temperature;BME280_humidity;BME280_pressure;Samples;Min_cycle;Max_cycle;Signal;HPM_P1;HPM_P2
2024/04/08 00:01:26;;;;;;;;;;;;;;;10.69;100.00;95361.25;10468806;28;19934;-74
2024/04/08 00:06:27;;;;;;;;;;;;;;;10.55;100.00;95355.53;10450298;28;19912;-74
2024/04/08 00:11:27;;;;;;;;;;;;;;;10.32;100.00;95360.13;10450935;28;20259;-74
2024/04/08 00:16:28;;;;;;;;;;;;;;;10.20;100.00;95357.63;10468752;28;20405;-74
2024/04/08 00:21:29;;;;;;;;;;;;;;;10.42;100.00;95352.19;10467653;28;19987;-73
2024/04/08 00:26:29;;;;;;;;;;;;;;;10.37;100.00;95340.59;10467600;28;19927;-75
2024/04/08 00:31:29;;;;;;;;;;;;;;;10.31;100.00;95347.78;10468095;28;19923;-73
2024/04/08 00:36:29;;;;;;;;;;;;;;;10.22;100.00;95350.09;10450464;28;20622;-74
2024/04/08 00:41:30;;;;;;;;;;;;;;;10.18;100.00;95350.88;10467516;28;20322;-74
2024/04/08 00:46:30;;;;;;;;;;;;;;;10.25;100.00;95352.28;10450066;28;19915;-73
2024/04/08 00:51:31;;;;;;;;;;;;;;;10.21;100.00;95351.19;10467431;28;20707;-73
2024/04/08 00:56:32;;;;;;;;;;;;;;;10.38;100.00;95350.25;10467148;28;20411;-75
2024/04/08 01:01:32;;;;;;;;;;;;;;;10.33;100.00;95353.69;10449825;28;20309;-74
2024/04/08 01:06:33;;;;;;;;;;;;;;;10.42;100.00;95346.00;10467319;28;20335;-74
2024/04/08 01:11:33;;;;;;;;;;;;;;;10.35;100.00;95348.91;10466705;28;19917;-74
2024/04/08 01:16:33;;;;;;;;;;;;;;;10.41;100.00;95345.19;10449140;28;19908;-73
2024/04/08 01:21:33;;;;;;;;;;;;;;;10.51;100.00;95347.16;10466980;28;19998;-75
2024/04/08 01:26:34;;;;;;;;;;;;;;;10.45;100.00;95350.06;10466105;28;20000;-75
2024/04/08 01:31:34;;;;;;;;;;;;;;;10.36;100.00;95347.84;10466447;28;19955;-75
2024/04/08 01:36:35;;;;;;;;;;;;;;;10.39;100.00;95338.47;10466240;28;19931;-75
2024/04/08 01:41:35;;;;;;;;;;;;;;;10.12;100.00;95341.97;10466023;28;20395;-75
2024/04/08 01:46:35;;;;;;;;;;;;;;;9.88;100.00;95349.53;10447796;28;19915;-75
2024/04/08 01:51:35;;;;;;;;;;;;;;;9.65;100.00;95346.06;10465641;28;20406;-73
2024/04/08 01:56:35;;;;;;;;;;;;;;;9.57;100.00;95330.41;10466855;28;19912;-75
2024/04/08 02:01:36;;;;;;;;;;;;;;;9.34;100.00;95336.88;10465524;28;19908;-75
2024/04/08 02:06:36;;;;;;;;;;;;;;;9.52;100.00;95330.38;10464073;28;19908;-72
2024/04/08 02:11:36;;;;;;;;;;;;;;;9.59;100.00;95330.97;10446914;28;19912;-75
2024/04/08 02:16:36;;;;;;;;;;;;;;;9.61;100.00;95333.41;10464188;28;20395;-73
2024/04/08 02:21:37;;;;;;;;;;;;;;;9.47;100.00;95339.16;10464357;28;19908;-75
2024/04/08 02:26:37;;;;;;;;;;;;;;;9.58;100.00;95340.88;10463818;28;19931;-73
2024/04/08 02:31:37;;;;;;;;;;;;;;;9.41;100.00;95342.84;10463951;28;20440;-75
2024/04/08 02:36:37;;;;;;;;;;;;;;;9.33;100.00;95336.03;10464312;28;20382;-75
2024/04/08 02:41:38;;;;;;;;;;;;;;;9.49;100.00;95357.69;10464936;28;19912;-75
2024/04/08 02:46:38;;;;;;;;;;;;;;;9.03;100.00;95364.09;10465934;28;20320;-75
2024/04/08 02:51:38;;;;;;;;;;;;;;;9.14;100.00;95365.06;10463023;28;20322;-75
2024/04/08 02:56:39;;;;;;;;;;;;;;;9.03;100.00;95369.47;10463575;28;19908;-74
2024/04/08 03:01:39;;;;;;;;;;;;;;;9.11;100.00;95367.41;10463799;28;19912;-73
2024/04/08 03:06:39;;;;;;;;;;;;;;;9.01;100.00;95370.78;10446044;28;19913;-74
2024/04/08 03:11:39;;;;;;;;;;;;;;;9.11;100.00;95375.47;10464117;28;20074;-75
2024/04/08 03:16:40;;;;;;;;;;;;;;;9.11;100.00;95375.47;10469299;28;19912;-75
2024/04/08 03:21:40;;;;;;;;;;;;;;;9.16;100.00;95373.66;10476755;28;20040;-75
2024/04/08 03:26:41;;;;;;;;;;;;;;;9.05;100.00;95382.63;10476761;28;19996;-74
2024/04/08 03:31:41;;;;;;;;;;;;;;;9.07;100.00;95389.38;10476098;28;19916;-75
2024/04/08 03:36:41;;;;;;;;;;;;;;;8.93;100.00;95388.09;10475811;28;20371;-74
2024/04/08 03:41:41;;;;;;;;;;;;;;;8.92;100.00;95394.50;10475704;28;19912;-74
2024/04/08 03:46:42;;;;;;;;;;;;;;;8.95;100.00;95394.00;10476103;28;20398;-74
2024/04/08 03:51:42;;;;;;;;;;;;;;;8.68;100.00;95399.25;10461623;28;19924;-75
2024/04/08 03:56:43;;;;;;;;;;;;;;;8.82;100.00;95397.84;10463476;28;19913;-73
2024/04/08 04:01:43;;;;;;;;;;;;;;;8.72;100.00;95401.19;10475681;28;19908;-74
2024/04/08 04:06:43;;;;;;;;;;;;;;;8.63;100.00;95397.28;10475994;28;19957;-74
2024/04/08 04:11:43;;;;;;;;;;;;;;;8.56;100.00;95402.00;10475678;28;19916;-74
2024/04/08 04:16:44;;;;;;;;;;;;;;;8.69;100.00;95401.69;10474786;28;19957;-74
2024/04/08 04:21:44;;;;;;;;;;;;;;;8.83;100.00;95398.66;10475277;28;20401;-74
2024/04/08 04:26:44;;;;;;;;;;;;;;;8.93;100.00;95401.50;10452908;28;19920;-76
2024/04/08 04:31:44;;;;;;;;;;;;;;;8.93;100.00;95409.56;10467501;28;20335;-75
2024/04/08 04:36:45;;;;;;;;;;;;;;;9.03;100.00;95407.00;10451237;28;19908;-76
2024/04/08 04:41:46;;;;;;;;;;;;;;;9.12;100.00;95410.06;10452181;28;19908;-77
2024/04/08 04:46:47;;;;;;;;;;;;;;;9.13;100.00;95418.94;10469146;28;19908;-74
2024/04/08 04:51:47;;;;;;;;;;;;;;;9.25;100.00;95422.31;10450068;28;20007;-75
2024/04/08 04:56:47;;;;;;;;;;;;;;;9.38;100.00;95439.94;10467773;28;19923;-75
2024/04/08 05:01:48;;;;;;;;;;;;;;;9.58;100.00;95429.44;10448773;28;19912;-74
2024/04/08 05:06:48;;;;;;;;;;;;;;;10.03;100.00;95430.25;10466798;28;19912;-76
2024/04/08 05:11:49;;;;;;;;;;;;;;;10.49;100.00;95437.16;10466056;28;19917;-74
2024/04/08 05:16:49;;;;;;;;;;;;;;;11.24;100.00;95427.22;10466041;28;19912;-75
2024/04/08 05:21:49;;;;;;;;;;;;;;;12.02;100.00;95422.25;10447332;28;20294;-75
2024/04/08 05:26:49;;;;;;;;;;;;;;;12.54;100.00;95426.63;10450943;28;19940;-74
2024/04/08 05:33:26;;;;;;;;;;;;;;;13.32;100.00;95420.09;11291847;26;19928;-74
2024/04/08 05:38:27;;;;;;;;;;;;;;;13.94;100.00;95424.53;11207650;26;20364;-74
2024/04/08 05:43:28;;;;;;;;;;;;;;;14.61;94.63;95421.44;11290481;26;19936;-73
2024/04/08 05:48:28;;;;;;;;;;;;;;;15.21;92.31;95423.97;11291710;26;19929;-74
2024/04/08 05:53:28;;;;;;;;;;;;;;;16.12;83.87;95422.44;11290789;26;20267;-74
2024/04/08 05:58:29;;;;;;;;;;;;;;;16.79;72.07;95432.34;11291548;26;20414;-74
2024/04/08 06:03:29;;;;;;;;;;;;;;;17.58;63.81;95423.41;11257420;26;20347;-74
2024/04/08 06:08:29;;;;;;;;;;;;;;;18.52;55.79;95417.72;11290473;26;20012;-75
2024/04/08 06:13:30;;;;;;;;;;;;;;;18.52;56.30;95420.44;11290092;26;20000;-75
2024/04/08 06:18:30;;;;;;;;;;;;;;;18.87;53.82;95418.00;11289686;26;19929;-75
2024/04/08 06:23:31;;;;;;;;;;;;;;;19.15;54.61;95421.41;11289981;26;19928;-74
2024/04/08 06:28:31;;;;;;;;;;;;;;;19.59;51.03;95417.00;11287298;26;19933;-75
2024/04/08 06:33:32;;;;;;;;;;;;;;;20.29;51.28;95411.78;11180151;26;19928;-75
2024/04/08 06:38:32;;;;;;;;;;;;;;;20.90;51.13;95410.25;11289360;26;19997;-76
2024/04/08 06:43:32;;;;;;;;;;;;;;;21.56;47.79;95409.16;11264925;26;19940;-75
2024/04/08 06:48:33;;;;;;;;;;;;;;;21.62;47.01;95411.41;11257514;26;20005;-75
2024/04/08 06:53:33;;;;;;;;;;;;;;;22.81;44.69;95410.56;11258611;26;20324;-75
2024/04/08 06:58:33;;;;;;;;;;;;;;;22.87;44.17;95411.97;11256509;26;20404;-75
2024/04/08 07:03:34;;;;;;;;;;;;;;;22.36;44.30;95422.97;11257928;26;19929;-75
2024/04/08 07:08:34;;;;;;;;;;;;;;;22.65;42.67;95424.09;11217644;26;20235;-74
2024/04/08 07:13:36;;;;;;;;;;;;;;;23.36;41.58;95427.84;11197665;26;19929;-74
2024/04/08 07:18:36;;;;;;;;;;;;;;;23.52;41.53;95424.47;11225935;26;19940;-74
2024/04/08 07:23:36;;;;;;;;;;;;;;;25.14;39.44;95426.00;11255620;26;19940;-73
2024/04/08 07:28:37;;;;;;;;;;;;;;;26.36;35.65;95412.63;11255746;26;19939;-73
2024/04/08 07:33:37;;;;;;;;;;;;;;;27.25;34.71;95409.38;11224419;26;19935;-75
2024/04/08 07:38:37;;;;;;;;;;;;;;;27.65;33.79;95407.41;11256806;26;19929;-73
2024/04/08 07:43:39;;;;;;;;;;;;;;;28.55;31.61;95411.63;11224545;26;20241;-74
2024/04/08 07:48:39;;;;;;;;;;;;;;;29.22;29.67;95405.44;11255932;26;20233;-74
2024/04/08 07:53:40;;;;;;;;;;;;;;;28.44;29.43;95397.66;11223144;26;19937;-75
2024/04/08 07:58:40;;;;;;;;;;;;;;;29.60;28.83;95405.47;11222312;26;20370;-73
2024/04/08 08:03:40;;;;;;;;;;;;;;;30.42;27.76;95394.28;11255132;26;19935;-74
2024/04/08 08:08:41;;;;;;;;;;;;;;;30.66;26.76;95389.31;11254619;26;20241;-74
2024/04/08 08:13:41;;;;;;;;;;;;;;;30.92;26.61;95390.22;11232068;26;20376;-73
2024/04/08 08:18:41;;;;;;;;;;;;;;;29.52;27.32;95384.41;11252389;26;20143;-74
2024/04/08 08:23:41;;;;;;;;;;;;;;;31.99;25.72;95384.19;11220526;26;20331;-74
2024/04/08 08:28:42;;;;;;;;;;;;;;;31.95;25.72;95377.03;11232040;26;20263;-75
2024/04/08 08:33:42;;;;;;;;;;;;;;;31.75;24.99;95368.31;11222052;26;19997;-75
2024/04/08 08:38:42;;;;;;;;;;;;;;;32.90;23.97;95361.84;11253108;26;19936;-75
2024/04/08 08:43:45;;;;;;;;;;;;;;;32.72;24.75;95371.03;11221436;26;19978;-72
2024/04/08 08:48:48;;;;;;;;;;;;;;;32.94;23.49;95362.63;11253906;26;20307;-73
2024/04/08 08:53:48;;;;;;;;;;;;;;;31.14;24.27;95361.38;11187257;26;20002;-74
2024/04/08 08:58:53;;;;;;;;;;;;;;;28.77;26.35;95365.72;11251875;26;20317;-73
2024/04/08 09:03:54;;;;;;;;;;;;;;;28.84;27.24;95351.19;11207325;26;19998;-74
2024/04/08 09:08:54;;;;;;;;;;;;;;;30.23;25.01;95350.97;11245693;26;19928;-74
2024/04/08 09:14:07;;;;;;;;;;;;;;;29.63;24.62;95355.63;11252118;26;20320;-73
2024/04/08 09:19:07;;;;;;;;;;;;;;;28.42;24.73;95351.00;11220668;26;19929;-74
2024/04/08 09:24:07;;;;;;;;;;;;;;;27.02;24.74;95352.19;11219936;26;20244;-72
2024/04/08 09:29:08;;;;;;;;;;;;;;;26.01;27.45;95339.03;11251592;26;19935;-74
2024/04/08 09:34:09;;;;;;;;;;;;;;;25.69;28.75;95339.03;11252087;26;20249;-73
2024/04/08 09:39:11;;;;;;;;;;;;;;;25.50;27.71;95341.69;11249364;26;19940;-74
2024/04/08 09:44:16;;;;;;;;;;;;;;;25.40;28.58;95335.53;11250590;26;20419;-74
2024/04/08 09:49:17;;;;;;;;;;;;;;;26.49;27.85;95319.59;11228904;26;19928;-74
2024/04/08 09:54:20;;;;;;;;;;;;;;;27.39;25.84;95310.34;11244962;26;19981;-74
2024/04/08 09:59:20;;;;;;;;;;;;;;;27.45;26.39;95308.84;11243274;26;19928;-74
2024/04/08 10:04:22;;;;;;;;;;;;;;;26.21;27.82;95298.53;11245577;26;19940;-74
2024/04/08 10:09:24;;;;;;;;;;;;;;;27.03;27.11;95304.16;11244661;26;19929;-73
2024/04/08 10:14:25;;;;;;;;;;;;;;;28.06;27.52;95288.91;11244001;26;19928;-73
2024/04/08 10:19:25;;;;;;;;;;;;;;;31.49;25.01;95272.97;11250179;26;20069;-73
2024/04/08 10:24:30;;;;;;;;;;;;;;;34.38;21.38;95258.47;11258388;26;20351;-73
2024/04/08 10:29:35;;;;;;;;;;;;;;;35.07;20.22;95252.84;11256959;26;19936;-73
2024/04/08 10:34:35;;;;;;;;;;;;;;;36.72;19.45;95248.47;11257759;26;20013;-73
2024/04/08 10:39:36;;;;;;;;;;;;;;;36.72;19.17;95234.47;11246878;26;19933;-74
2024/04/08 10:44:36;;;;;;;;;;;;;;;36.15;19.42;95231.53;11169127;26;20241;-75
2024/04/08 10:49:36;;;;;;;;;;;;;;;36.86;19.82;95211.75;11225074;26;19978;-74
2024/04/08 10:54:38;;;;;;;;;;;;;;;36.57;18.64;95206.75;11256940;26;19935;-75
2024/04/08 10:59:38;;;;;;;;;;;;;;;37.59;17.84;95199.66;11257076;26;20358;-73
2024/04/08 11:04:38;;;;;;;;;;;;;;;37.38;17.93;95190.56;11225325;26;19928;-75
2024/04/08 11:09:39;;;;;;;;;;;;;;;35.63;20.47;95185.31;11224088;26;19936;-74
2024/04/08 11:14:40;;;;;;;;;;;;;;;36.76;18.36;95181.97;11224290;26;19976;-74
2024/04/08 11:19:43;;;;;;;;;;;;;;;36.16;18.93;95181.97;11224425;26;20003;-73
2024/04/08 11:24:44;;;;;;;;;;;;;;;33.21;22.13;95179.03;11255742;26;20314;-74
2024/04/08 11:29:44;;;;;;;;;;;;;;;30.40;24.17;95171.22;11234051;26;19929;-74
2024/04/08 11:34:45;;;;;;;;;;;;;;;28.13;26.01;95178.47;11179784;26;20355;-74
2024/04/08 11:39:45;;;;;;;;;;;;;;;26.62;27.19;95171.38;11181681;26;20251;-72
2024/04/08 11:44:56;;;;;;;;;;;;;;;25.63;29.83;95167.00;11178836;26;19929;-74
2024/04/08 11:49:56;;;;;;;;;;;;;;;25.06;30.45;95161.78;11181356;26;20342;-73
2024/04/08 11:54:56;;;;;;;;;;;;;;;24.47;31.05;95160.63;11177676;26;19929;-73
2024/04/08 11:59:57;;;;;;;;;;;;;;;24.08;32.69;95143.88;11180480;26;19929;-73
2024/04/08 12:04:57;;;;;;;;;;;;;;;23.44;32.40;95149.06;11178695;26;19948;-73
2024/04/08 12:09:57;;;;;;;;;;;;;;;23.19;34.28;95148.31;11179782;26;19979;-72
2024/04/08 12:14:57;;;;;;;;;;;;;;;23.13;32.96;95145.00;11179714;26;19939;-73
2024/04/08 12:19:58;;;;;;;;;;;;;;;23.13;33.04;95138.72;11180208;26;20401;-74
2024/04/08 12:24:58;;;;;;;;;;;;;;;22.93;34.92;95124.78;11179213;26;19940;-73
2024/04/08 12:29:58;;;;;;;;;;;;;;;23.07;33.71;95116.22;11176368;26;19936;-73
2024/04/08 12:34:58;;;;;;;;;;;;;;;22.96;34.14;95102.16;11179802;26;19940;-73
2024/04/08 12:39:59;;;;;;;;;;;;;;;22.92;33.96;95114.94;11174891;26;19940;-73
2024/04/08 12:44:59;;;;;;;;;;;;;;;22.78;32.98;95096.09;11180233;26;20327;-73
2024/04/08 12:49:59;;;;;;;;;;;;;;;22.90;33.58;95092.59;11176983;26;19929;-73
2024/04/08 12:55:00;;;;;;;;;;;;;;;22.74;34.03;95095.19;11178968;26;20688;-73
2024/04/08 13:00:00;;;;;;;;;;;;;;;22.83;34.86;95078.66;11178430;26;19958;-74
2024/04/08 13:05:00;;;;;;;;;;;;;;;22.85;33.30;95076.34;11157633;26;19998;-73
2024/04/08 13:10:01;;;;;;;;;;;;;;;22.82;33.46;95074.31;11178750;26;20271;-74
2024/04/08 13:15:01;;;;;;;;;;;;;;;22.73;36.39;95073.63;11174875;26;19929;-73
2024/04/08 13:20:01;;;;;;;;;;;;;;;22.76;33.72;95060.03;11178970;26;20257;-72
2024/04/08 13:25:02;;;;;;;;;;;;;;;22.70;34.17;95054.00;11179213;26;19997;-73
2024/04/08 13:30:03;;;;;;;;;;;;;;;22.73;34.19;95051.69;11161891;26;20333;-73
2024/04/08 13:35:04;;;;;;;;;;;;;;;22.67;34.05;95045.66;11171960;26;20290;-71
2024/04/08 13:40:05;;;;;;;;;;;;;;;22.39;33.82;95051.03;11176609;26;19937;-78
2024/04/08 13:45:05;;;;;;;;;;;;;;;22.21;33.97;95044.91;11176907;26;19986;-75
2024/04/08 13:50:06;;;;;;;;;;;;;;;22.08;34.22;95044.91;11177622;26;19929;-76
2024/04/08 13:55:06;;;;;;;;;;;;;;;22.03;34.33;95034.16;11181608;26;19929;-74
2024/04/08 14:00:09;;;;;;;;;;;;;;;21.94;34.25;95038.94;11128610;26;20365;-77
2024/04/08 14:05:09;;;;;;;;;;;;;;;21.90;35.13;95036.06;11039736;26;20261;-78
2024/04/08 14:10:09;;;;;;;;;;;;;;;21.89;34.64;95033.69;11143346;26;19957;-77
2024/04/08 14:15:10;;;;;;;;;;;;;;;21.82;34.34;95028.75;11182824;26;20367;-76
2024/04/08 14:20:10;;;;;;;;;;;;;;;21.73;34.44;95022.59;11183408;26;20006;-78
2024/04/08 14:25:10;;;;;;;;;;;;;;;21.65;33.83;95021.53;11184099;26;20340;-74
2024/04/08 14:30:10;;;;;;;;;;;;;;;21.70;33.91;95025.97;11178920;26;20572;-74
2024/04/08 14:35:11;;;;;;;;;;;;;;;21.58;33.52;95033.00;11122734;26;19937;-73
2024/04/08 14:40:11;;;;;;;;;;;;;;;21.41;33.19;95025.72;11183184;26;19941;-75
2024/04/08 14:45:13;;;;;;;;;;;;;;;21.34;32.63;95030.94;11181591;26;20367;-73
2024/04/08 14:50:13;;;;;;;;;;;;;;;21.38;32.98;95025.59;11180804;26;19998;-74
2024/04/08 14:55:18;;;;;;;;;;;;;;;21.34;32.85;95020.00;11182197;26;20332;-74
2024/04/08 15:00:18;;;;;;;;;;;;;;;21.32;33.78;95020.34;11181639;26;20420;-73
2024/04/08 15:05:19;;;;;;;;;;;;;;;21.43;33.79;95019.94;11180311;26;20002;-73
2024/04/08 15:10:20;;;;;;;;;;;;;;;21.37;33.24;95019.34;11179961;26;19929;-73
2024/04/08 15:15:20;;;;;;;;;;;;;;;21.34;33.20;95015.34;11180592;26;20550;-73
2024/04/08 15:20:20;;;;;;;;;;;;;;;21.13;33.61;95022.75;11177579;26;19929;-73
2024/04/08 15:25:21;;;;;;;;;;;;;;;21.13;34.40;95025.50;11180386;26;19937;-73
2024/04/08 15:30:21;;;;;;;;;;;;;;;21.09;34.15;95027.28;11180113;26;20410;-73
2024/04/08 15:35:21;;;;;;;;;;;;;;;21.13;34.64;95020.03;11181659;26;19935;-75
2024/04/08 15:40:21;;;;;;;;;;;;;;;21.06;35.63;95025.22;11177512;26;20193;-74
2024/04/08 15:45:22;;;;;;;;;;;;;;;21.00;35.39;95024.59;11178455;26;20007;-73
2024/04/08 15:50:22;;;;;;;;;;;;;;;20.99;35.33;95010.16;11176976;26;19933;-74
2024/04/08 15:55:22;;;;;;;;;;;;;;;20.92;35.08;95009.88;11177935;26;19993;-74
2024/04/08 16:00:22;;;;;;;;;;;;;;;21.00;35.46;95006.28;11180273;26;19936;-73
2024/04/08 16:05:23;;;;;;;;;;;;;;;20.94;35.36;95013.06;11217542;26;20341;-74
2024/04/08 16:10:24;;;;;;;;;;;;;;;20.94;34.69;95007.59;11253811;26;19941;-73
2024/04/08 16:15:24;;;;;;;;;;;;;;;20.71;33.82;95011.78;11201507;26;20371;-74
2024/04/08 16:20:25;;;;;;;;;;;;;;;20.47;33.42;95013.19;11254177;26;19937;-73
2024/04/08 16:25:25;;;;;;;;;;;;;;;20.26;32.96;95024.03;11252424;26;19936;-73
2024/04/08 16:30:25;;;;;;;;;;;;;;;20.08;33.29;95026.84;11253475;26;20248;-74
2024/04/08 16:35:25;;;;;;;;;;;;;;;19.98;33.18;95025.28;11254660;26;19936;-73
2024/04/08 16:40:26;;;;;;;;;;;;;;;19.90;33.37;95026.09;11252703;26;20358;-73
2024/04/08 16:45:26;;;;;;;;;;;;;;;19.84;33.23;95029.34;11254061;26;19929;-74
2024/04/08 16:50:27;;;;;;;;;;;;;;;19.54;34.18;95030.00;11253414;26;19935;-73
2024/04/08 16:55:28;;;;;;;;;;;;;;;19.37;34.25;95030.00;11220596;26;19940;-74
2024/04/08 17:00:28;;;;;;;;;;;;;;;19.17;33.90;95031.47;11246163;26;19941;-73
2024/04/08 17:05:29;;;;;;;;;;;;;;;18.97;34.36;95044.59;11254166;26;19939;-75
2024/04/08 17:10:29;;;;;;;;;;;;;;;18.82;34.01;95054.00;11222084;26;19929;-74
2024/04/08 17:15:29;;;;;;;;;;;;;;;18.68;34.16;95050.59;11252194;26;20316;-73
2024/04/08 17:20:29;;;;;;;;;;;;;;;18.51;34.17;95054.09;11252395;26;19928;-73
2024/04/08 17:25:30;;;;;;;;;;;;;;;18.39;34.65;95062.84;11220632;26;19981;-73
2024/04/08 17:30:30;;;;;;;;;;;;;;;18.25;34.71;95052.06;11252255;26;20034;-74
2024/04/08 17:35:33;;;;;;;;;;;;;;;18.16;34.78;95064.84;11221513;26;19936;-73
2024/04/08 17:40:33;;;;;;;;;;;;;;;18.03;35.00;95071.97;11252916;26;19929;-74
2024/04/08 17:45:34;;;;;;;;;;;;;;;17.96;35.47;95079.78;11252542;26;20327;-74
2024/04/08 17:50:34;;;;;;;;;;;;;;;17.88;35.81;95081.31;11209428;26;19937;-75
2024/04/08 17:55:34;;;;;;;;;;;;;;;17.65;36.50;95080.53;11178294;26;19944;-82
2024/04/08 18:00:35;;;;;;;;;;;;;;;17.53;36.54;95090.03;11176597;26;19936;-77
2024/04/08 18:05:35;;;;;;;;;;;;;;;17.40;36.39;95093.59;11174232;26;19940;-75
2024/04/08 18:10:36;;;;;;;;;;;;;;;17.30;36.59;95096.56;11174388;26;20340;-72
2024/04/08 18:15:39;;;;;;;;;;;;;;;17.08;36.59;95101.66;11176526;26;19929;-77
2024/04/08 18:20:39;;;;;;;;;;;;;;;16.98;36.63;95109.22;11174527;26;19937;-71
2024/04/08 18:25:41;;;;;;;;;;;;;;;16.85;36.92;95117.03;11170452;26;20318;-77
2024/04/08 18:30:41;;;;;;;;;;;;;;;16.81;36.89;95121.47;11138764;26;20301;-76
2024/04/08 18:35:41;;;;;;;;;;;;;;;16.71;36.57;95127.13;11175164;26;19937;-76
2024/04/08 18:40:42;;;;;;;;;;;;;;;16.77;36.77;95131.31;11182334;26;19929;-80
2024/04/08 18:45:42;;;;;;;;;;;;;;;16.76;36.49;95124.31;11151173;26;20651;-77
2024/04/08 18:50:42;;;;;;;;;;;;;;;16.64;36.00;95124.78;11162489;26;19940;-77
2024/04/08 18:55:43;;;;;;;;;;;;;;;16.48;36.07;95135.16;11188713;26;19937;-77
2024/04/08 19:00:43;;;;;;;;;;;;;;;16.45;36.04;95133.06;11188577;26;19929;-80
2024/04/08 19:05:44;;;;;;;;;;;;;;;16.38;36.47;95135.34;11180584;26;19990;-79
2024/04/08 19:10:45;;;;;;;;;;;;;;;16.07;37.01;95127.75;11182798;26;19937;-74
2024/04/08 19:15:45;;;;;;;;;;;;;;;15.98;37.56;95143.91;11181187;26;19997;-75
2024/04/08 19:20:45;;;;;;;;;;;;;;;15.70;38.29;95137.56;11141972;26;19940;-74
2024/04/08 19:25:56;;;;;;;;;;;;;;;15.47;38.64;95145.50;11179532;26;19929;-74
2024/04/08 19:30:56;;;;;;;;;;;;;;;15.42;38.53;95142.88;11177837;26;19935;-75
2024/04/08 19:35:58;;;;;;;;;;;;;;;15.24;38.76;95135.53;11181202;26;19929;-77
2024/04/08 19:40:59;;;;;;;;;;;;;;;15.26;38.50;95141.47;11147562;26;20699;-77
2024/04/08 19:46:06;;;;;;;;;;;;;;;15.03;38.73;95152.88;11143761;26;19929;-75
2024/04/08 19:51:16;;;;;;;;;;;;;;;14.98;39.11;95155.66;11147320;26;19929;-76
2024/04/08 19:56:17;;;;;;;;;;;;;;;14.90;39.90;95155.50;11162067;26;20263;-74
2024/04/08 20:01:18;;;;;;;;;;;;;;;14.74;40.53;95161.09;11179532;26;19936;-79
2024/04/08 20:06:18;;;;;;;;;;;;;;;14.54;40.79;95164.81;11128060;26;19929;-69
2024/04/08 20:11:18;;;;;;;;;;;;;;;14.45;41.46;95164.63;11177490;26;19945;-71
2024/04/08 20:16:19;;;;;;;;;;;;;;;14.34;41.52;95160.41;11171119;26;20273;-72
2024/04/08 20:21:21;;;;;;;;;;;;;;;14.31;41.81;95171.81;11174481;26;20260;-71
2024/04/08 20:26:21;;;;;;;;;;;;;;;14.27;42.43;95173.47;11174715;26;19929;-71
2024/04/08 20:31:21;;;;;;;;;;;;;;;14.28;42.69;95166.97;11174393;26;19929;-77
2024/04/08 20:36:22;;;;;;;;;;;;;;;14.27;42.85;95162.66;11148039;26;20375;-72
2024/04/08 20:41:22;;;;;;;;;;;;;;;14.16;43.74;95162.78;11175137;26;19929;-72
2024/04/08 20:46:22;;;;;;;;;;;;;;;14.05;44.44;95158.56;11170678;26;19969;-73
2024/04/08 20:51:22;;;;;;;;;;;;;;;14.04;45.08;95156.94;11179487;26;19933;-73
2024/04/08 20:56:23;;;;;;;;;;;;;;;13.90;45.75;95164.06;11177158;26;19929;-74
2024/04/08 21:01:23;;;;;;;;;;;;;;;13.76;46.69;95170.13;11174467;26;19937;-74
2024/04/08 21:06:26;;;;;;;;;;;;;;;13.80;46.88;95171.19;11148601;26;20386;-74
2024/04/08 21:11:27;;;;;;;;;;;;;;;13.73;47.29;95164.47;11177075;26;19929;-73
2024/04/08 21:16:27;;;;;;;;;;;;;;;13.63;49.24;95165.38;11166552;26;20260;-83
2024/04/08 21:21:28;;;;;;;;;;;;;;;13.64;49.35;95161.59;11184442;26;20018;-83
2024/04/08 21:26:28;;;;;;;;;;;;;;;13.52;49.78;95153.81;11152918;26;19929;-80
2024/04/08 21:31:28;;;;;;;;;;;;;;;13.48;51.17;95148.19;11163520;26;20235;-80
2024/04/08 21:36:29;;;;;;;;;;;;;;;13.38;52.65;95145.59;11150561;26;19929;-79
2024/04/08 21:41:31;;;;;;;;;;;;;;;13.46;53.48;95144.97;11148226;26;19998;-79
2024/04/08 21:46:31;;;;;;;;;;;;;;;13.50;54.18;95146.00;11181747;26;19998;-79
2024/04/08 21:51:31;;;;;;;;;;;;;;;13.40;55.00;95151.50;11144809;26;19929;-76
2024/04/08 21:56:31;;;;;;;;;;;;;;;13.31;55.98;95153.97;11172293;26;20244;-76
2024/04/08 22:01:32;;;;;;;;;;;;;;;13.30;56.51;95146.13;11176360;26;19971;-75
2024/04/08 22:06:32;;;;;;;;;;;;;;;13.20;57.85;95149.72;11143936;26;20268;-76
2024/04/08 22:11:32;;;;;;;;;;;;;;;13.12;59.26;95147.59;11177592;26;19936;-74
2024/04/08 22:16:33;;;;;;;;;;;;;;;13.12;60.65;95140.31;11152175;26;19929;-76
2024/04/08 22:21:33;;;;;;;;;;;;;;;13.22;60.75;95142.13;11181500;26;20324;-76
2024/04/08 22:26:34;;;;;;;;;;;;;;;13.22;61.41;95142.13;11171299;26;20362;-78
2024/04/08 22:31:34;;;;;;;;;;;;;;;13.06;62.68;95144.13;11180829;26;20336;-77
2024/04/08 22:36:34;;;;;;;;;;;;;;;12.92;64.18;95135.84;11203246;26;19929;-78
2024/04/08 22:41:34;;;;;;;;;;;;;;;12.87;65.47;95137.75;11231887;26;20674;-78
2024/04/08 22:46:35;;;;;;;;;;;;;;;12.91;65.53;95128.03;11159638;26;20002;-78
2024/04/08 22:51:35;;;;;;;;;;;;;;;12.79;66.12;95123.75;11178937;26;20355;-76
2024/04/08 22:56:35;;;;;;;;;;;;;;;12.78;68.55;95124.84;11257963;26;19928;-77
2024/04/08 23:01:35;;;;;;;;;;;;;;;12.84;67.19;95128.31;11177640;26;20417;-77
2024/04/08 23:06:35;;;;;;;;;;;;;;;12.83;65.91;95122.09;11226636;26;19956;-78
2024/04/08 23:11:36;;;;;;;;;;;;;;;12.78;65.76;95114.06;11226104;26;19932;-76
2024/04/08 23:16:36;;;;;;;;;;;;;;;12.79;65.58;95120.25;11256212;26;19997;-78
2024/04/08 23:21:36;;;;;;;;;;;;;;;12.68;67.51;95119.47;11216883;26;19937;-77
2024/04/08 23:26:36;;;;;;;;;;;;;;;12.53;70.61;95109.59;11202573;26;19940;-77
2024/04/08 23:31:37;;;;;;;;;;;;;;;12.45;69.72;95108.25;11172227;26;20380;-79
2024/04/08 23:36:38;;;;;;;;;;;;;;;12.22;72.25;95103.47;11155538;26;19929;-77
2024/04/08 23:41:39;;;;;;;;;;;;;;;12.02;74.29;95102.47;11159743;26;20329;-78
2024/04/08 23:46:39;;;;;;;;;;;;;;;11.85;76.28;95101.94;11119304;26;19929;-78
2024/04/08 23:51:41;;;;;;;;;;;;;;;11.58;78.46;95105.72;11132977;26;19943;-78
2024/04/08 23:56:41;;;;;;;;;;;;;;;11.52;80.06;95098.72;11183715;26;20006;-78
